sensor_id;sensor_type;location;lat;lon;timestamp;temperature;humidity
61591;DHT22;57639;52.410;-1.966;2023-04-24T00:02:01;16.10;54.60
61591;DHT22;57639;52.410;-1.966;2023-04-24T00:05:24;16.10;54.50
61591;DHT22;57639;52.410;-1.966;2023-04-24T00:08:47;16.10;54.30
61591;DHT22;57639;52.410;-1.966;2023-04-24T00:12:12;16.10;54.60
61591;DHT22;57639;52.410;-1.966;2023-04-24T00:15:34;16.20;54.30
61591;DHT22;57639;52.410;-1.966;2023-04-24T00:18:57;16.10;54.20
61591;DHT22;57639;52.410;-1.966;2023-04-24T00:22:20;16.10;54.20
61591;DHT22;57639;52.410;-1.966;2023-04-24T00:25:43;16.10;54.40
61591;DHT22;57639;52.410;-1.966;2023-04-24T00:29:08;16.10;54.20
61591;DHT22;57639;52.410;-1.966;2023-04-24T00:32:31;16.10;54.60
61591;DHT22;57639;52.410;-1.966;2023-04-24T00:35:54;16.10;54.90
61591;DHT22;57639;52.410;-1.966;2023-04-24T00:39:17;16.10;55.10
61591;DHT22;57639;52.410;-1.966;2023-04-24T00:42:40;16.00;55.00
61591;DHT22;57639;52.410;-1.966;2023-04-24T00:46:06;16.00;55.20
61591;DHT22;57639;52.410;-1.966;2023-04-24T00:49:28;16.00;55.20
61591;DHT22;57639;52.410;-1.966;2023-04-24T00:52:51;16.00;55.30
61591;DHT22;57639;52.410;-1.966;2023-04-24T00:56:10;16.00;55.30
61591;DHT22;57639;52.410;-1.966;2023-04-24T00:59:32;15.90;55.30
61591;DHT22;57639;52.410;-1.966;2023-04-24T01:02:59;15.90;55.30
61591;DHT22;57639;52.410;-1.966;2023-04-24T01:06:23;15.90;55.40
61591;DHT22;57639;52.410;-1.966;2023-04-24T01:09:50;15.80;55.30
61591;DHT22;57639;52.410;-1.966;2023-04-24T01:13:14;15.80;55.40
61591;DHT22;57639;52.410;-1.966;2023-04-24T01:16:37;15.80;55.30
61591;DHT22;57639;52.410;-1.966;2023-04-24T01:20:04;15.80;55.40
61591;DHT22;57639;52.410;-1.966;2023-04-24T01:23:30;15.80;55.30
61591;DHT22;57639;52.410;-1.966;2023-04-24T01:26:53;15.80;55.30
61591;DHT22;57639;52.410;-1.966;2023-04-24T01:30:17;15.80;55.30
61591;DHT22;57639;52.410;-1.966;2023-04-24T01:33:41;15.80;55.30
61591;DHT22;57639;52.410;-1.966;2023-04-24T01:37:04;15.70;55.30
61591;DHT22;57639;52.410;-1.966;2023-04-24T01:40:31;15.70;55.40
61591;DHT22;57639;52.410;-1.966;2023-04-24T01:43:53;15.70;55.30
61591;DHT22;57639;52.410;-1.966;2023-04-24T01:47:17;15.70;55.40
61591;DHT22;57639;52.410;-1.966;2023-04-24T01:50:40;15.70;55.40
61591;DHT22;57639;52.410;-1.966;2023-04-24T01:54:03;15.60;55.40
61591;DHT22;57639;52.410;-1.966;2023-04-24T01:57:28;15.60;55.40
61591;DHT22;57639;52.410;-1.966;2023-04-24T02:00:48;15.60;55.40
61591;DHT22;57639;52.410;-1.966;2023-04-24T02:04:10;15.60;55.30
61591;DHT22;57639;52.410;-1.966;2023-04-24T02:07:34;15.60;55.30
61591;DHT22;57639;52.410;-1.966;2023-04-24T02:10:57;15.70;55.20
61591;DHT22;57639;52.410;-1.966;2023-04-24T02:14:23;15.60;55.10
61591;DHT22;57639;52.410;-1.966;2023-04-24T02:17:46;15.60;55.20
61591;DHT22;57639;52.410;-1.966;2023-04-24T02:21:09;15.70;55.10
61591;DHT22;57639;52.410;-1.966;2023-04-24T02:24:32;15.70;55.10
61591;DHT22;57639;52.410;-1.966;2023-04-24T02:27:54;15.60;55.00
61591;DHT22;57639;52.410;-1.966;2023-04-24T02:31:20;15.70;55.00
61591;DHT22;57639;52.410;-1.966;2023-04-24T02:34:43;15.70;55.00
61591;DHT22;57639;52.410;-1.966;2023-04-24T02:38:05;15.70;54.90
61591;DHT22;57639;52.410;-1.966;2023-04-24T02:41:28;15.70;54.90
61591;DHT22;57639;52.410;-1.966;2023-04-24T02:44:52;15.60;54.20
61591;DHT22;57639;52.410;-1.966;2023-04-24T02:48:17;15.70;53.80
61591;DHT22;57639;52.410;-1.966;2023-04-24T02:51:40;15.60;53.50
61591;DHT22;57639;52.410;-1.966;2023-04-24T02:55:03;15.60;53.50
61591;DHT22;57639;52.410;-1.966;2023-04-24T02:58:27;15.60;53.50
61591;DHT22;57639;52.410;-1.966;2023-04-24T03:01:50;15.60;53.40
61591;DHT22;57639;52.410;-1.966;2023-04-24T03:05:12;15.60;53.50
61591;DHT22;57639;52.410;-1.966;2023-04-24T03:08:35;15.60;53.50
61591;DHT22;57639;52.410;-1.966;2023-04-24T03:11:57;15.60;53.40
61591;DHT22;57639;52.410;-1.966;2023-04-24T03:15:20;15.60;53.40
61591;DHT22;57639;52.410;-1.966;2023-04-24T03:18:42;15.60;53.50
61591;DHT22;57639;52.410;-1.966;2023-04-24T03:22:08;15.60;53.50
61591;DHT22;57639;52.410;-1.966;2023-04-24T03:25:31;15.50;53.40
61591;DHT22;57639;52.410;-1.966;2023-04-24T03:28:54;15.50;53.40
61591;DHT22;57639;52.410;-1.966;2023-04-24T03:32:17;15.50;53.40
61591;DHT22;57639;52.410;-1.966;2023-04-24T03:35:39;15.50;53.40
61591;DHT22;57639;52.410;-1.966;2023-04-24T03:39:05;15.50;53.40
61591;DHT22;57639;52.410;-1.966;2023-04-24T03:42:28;15.50;53.40
61591;DHT22;57639;52.410;-1.966;2023-04-24T03:45:51;15.40;53.60
61591;DHT22;57639;52.410;-1.966;2023-04-24T03:49:13;15.50;53.50
61591;DHT22;57639;52.410;-1.966;2023-04-24T03:52:36;15.40;53.60
61591;DHT22;57639;52.410;-1.966;2023-04-24T03:56:01;15.40;53.70
61591;DHT22;57639;52.410;-1.966;2023-04-24T03:59:24;15.40;53.70
61591;DHT22;57639;52.410;-1.966;2023-04-24T04:02:46;15.40;53.70
61591;DHT22;57639;52.410;-1.966;2023-04-24T04:06:10;15.40;54.10
61591;DHT22;57639;52.410;-1.966;2023-04-24T04:09:29;15.30;53.90
61591;DHT22;57639;52.410;-1.966;2023-04-24T04:12:55;15.30;54.00
61591;DHT22;57639;52.410;-1.966;2023-04-24T04:16:17;15.30;53.80
61591;DHT22;57639;52.410;-1.966;2023-04-24T04:19:40;15.30;54.10
61591;DHT22;57639;52.410;-1.966;2023-04-24T04:23:03;15.30;54.00
61591;DHT22;57639;52.410;-1.966;2023-04-24T04:26:26;15.30;53.90
61591;DHT22;57639;52.410;-1.966;2023-04-24T04:29:54;15.30;54.10
61591;DHT22;57639;52.410;-1.966;2023-04-24T04:33:16;15.20;53.90
61591;DHT22;57639;52.410;-1.966;2023-04-24T04:36:39;15.20;53.50
61591;DHT22;57639;52.410;-1.966;2023-04-24T04:40:04;15.30;53.50
61591;DHT22;57639;52.410;-1.966;2023-04-24T04:43:29;15.30;53.30
61591;DHT22;57639;52.410;-1.966;2023-04-24T04:46:57;15.30;53.20
61591;DHT22;57639;52.410;-1.966;2023-04-24T04:50:20;15.30;53.10
61591;DHT22;57639;52.410;-1.966;2023-04-24T04:53:42;15.30;53.10
61591;DHT22;57639;52.410;-1.966;2023-04-24T04:57:05;15.30;53.10
61591;DHT22;57639;52.410;-1.966;2023-04-24T05:00:28;15.30;53.00
61591;DHT22;57639;52.410;-1.966;2023-04-24T05:03:57;15.30;52.90
61591;DHT22;57639;52.410;-1.966;2023-04-24T05:07:20;15.30;53.00
61591;DHT22;57639;52.410;-1.966;2023-04-24T05:10:42;15.30;52.90
61591;DHT22;57639;52.410;-1.966;2023-04-24T05:14:01;15.30;52.90
61591;DHT22;57639;52.410;-1.966;2023-04-24T05:17:24;15.30;53.00
61591;DHT22;57639;52.410;-1.966;2023-04-24T05:20:50;15.30;53.00
61591;DHT22;57639;52.410;-1.966;2023-04-24T05:24:12;15.30;53.20
61591;DHT22;57639;52.410;-1.966;2023-04-24T05:27:35;15.30;53.10
61591;DHT22;57639;52.410;-1.966;2023-04-24T05:30:58;15.20;53.10
61591;DHT22;57639;52.410;-1.966;2023-04-24T05:34:23;15.20;53.10
61591;DHT22;57639;52.410;-1.966;2023-04-24T05:37:48;15.20;53.20
61591;DHT22;57639;52.410;-1.966;2023-04-24T05:41:10;15.20;53.50
61591;DHT22;57639;52.410;-1.966;2023-04-24T05:44:33;15.10;53.60
61591;DHT22;57639;52.410;-1.966;2023-04-24T05:47:56;15.10;53.70
61591;DHT22;57639;52.410;-1.966;2023-04-24T05:51:19;15.10;53.40
61591;DHT22;57639;52.410;-1.966;2023-04-24T05:54:44;15.10;53.70
61591;DHT22;57639;52.410;-1.966;2023-04-24T05:58:06;15.10;53.60
61591;DHT22;57639;52.410;-1.966;2023-04-24T06:01:29;15.10;54.00
61591;DHT22;57639;52.410;-1.966;2023-04-24T06:04:52;15.00;53.90
61591;DHT22;57639;52.410;-1.966;2023-04-24T06:08:15;15.00;53.80
61591;DHT22;57639;52.410;-1.966;2023-04-24T06:11:40;15.00;53.80
61591;DHT22;57639;52.410;-1.966;2023-04-24T06:15:03;15.00;53.50
61591;DHT22;57639;52.410;-1.966;2023-04-24T06:18:22;15.10;53.70
61591;DHT22;57639;52.410;-1.966;2023-04-24T06:21:45;15.10;53.20
61591;DHT22;57639;52.410;-1.966;2023-04-24T06:25:08;15.20;53.30
61591;DHT22;57639;52.410;-1.966;2023-04-24T06:28:34;15.30;53.40
61591;DHT22;57639;52.410;-1.966;2023-04-24T06:31:57;15.40;53.30
61591;DHT22;57639;52.410;-1.966;2023-04-24T06:35:19;15.60;53.10
61591;DHT22;57639;52.410;-1.966;2023-04-24T06:38:42;15.70;53.00
61591;DHT22;57639;52.410;-1.966;2023-04-24T06:42:05;15.80;52.90
61591;DHT22;57639;52.410;-1.966;2023-04-24T06:45:31;15.90;52.70
61591;DHT22;57639;52.410;-1.966;2023-04-24T06:48:54;16.00;52.60
61591;DHT22;57639;52.410;-1.966;2023-04-24T06:52:17;16.10;52.60
61591;DHT22;57639;52.410;-1.966;2023-04-24T06:55:40;16.20;52.50
61591;DHT22;57639;52.410;-1.966;2023-04-24T06:59:04;16.20;52.30
61591;DHT22;57639;52.410;-1.966;2023-04-24T07:02:29;16.30;52.20
61591;DHT22;57639;52.410;-1.966;2023-04-24T07:05:52;16.40;52.10
61591;DHT22;57639;52.410;-1.966;2023-04-24T07:09:15;16.50;52.30
61591;DHT22;57639;52.410;-1.966;2023-04-24T07:12:38;16.50;52.60
61591;DHT22;57639;52.410;-1.966;2023-04-24T07:16:01;16.60;52.80
61591;DHT22;57639;52.410;-1.966;2023-04-24T07:19:26;16.60;53.20
61591;DHT22;57639;52.410;-1.966;2023-04-24T07:22:48;16.60;53.70
61591;DHT22;57639;52.410;-1.966;2023-04-24T07:26:09;16.60;54.00
61591;DHT22;57639;52.410;-1.966;2023-04-24T07:29:33;16.60;54.30
61591;DHT22;57639;52.410;-1.966;2023-04-24T07:32:56;16.70;54.30
61591;DHT22;57639;52.410;-1.966;2023-04-24T07:36:21;16.70;54.20
61591;DHT22;57639;52.410;-1.966;2023-04-24T07:39:45;16.70;54.30
61591;DHT22;57639;52.410;-1.966;2023-04-24T07:43:08;16.70;54.30
61591;DHT22;57639;52.410;-1.966;2023-04-24T07:46:30;16.70;54.40
61591;DHT22;57639;52.410;-1.966;2023-04-24T07:49:53;16.70;54.40
61591;DHT22;57639;52.410;-1.966;2023-04-24T07:53:19;16.70;54.40
61591;DHT22;57639;52.410;-1.966;2023-04-24T07:56:43;16.60;54.40
61591;DHT22;57639;52.410;-1.966;2023-04-24T08:00:08;16.60;54.40
61591;DHT22;57639;52.410;-1.966;2023-04-24T08:11:58;16.40;54.30
61591;DHT22;57639;52.410;-1.966;2023-04-24T08:15:21;16.40;54.20
61591;DHT22;57639;52.410;-1.966;2023-04-24T08:18:44;16.30;54.10
61591;DHT22;57639;52.410;-1.966;2023-04-24T08:22:07;16.30;54.00
61591;DHT22;57639;52.410;-1.966;2023-04-24T08:25:30;16.30;53.90
61591;DHT22;57639;52.410;-1.966;2023-04-24T08:28:53;16.30;53.80
61591;DHT22;57639;52.410;-1.966;2023-04-24T08:32:17;16.30;53.70
61591;DHT22;57639;52.410;-1.966;2023-04-24T08:35:40;16.20;53.70
61591;DHT22;57639;52.410;-1.966;2023-04-24T08:39:03;16.20;53.70
61591;DHT22;57639;52.410;-1.966;2023-04-24T08:42:28;16.20;53.70
61591;DHT22;57639;52.410;-1.966;2023-04-24T08:45:56;16.20;53.60
61591;DHT22;57639;52.410;-1.966;2023-04-24T08:49:19;16.10;53.70
61591;DHT22;57639;52.410;-1.966;2023-04-24T08:52:42;16.20;53.70
61591;DHT22;57639;52.410;-1.966;2023-04-24T08:56:05;16.10;53.60
61591;DHT22;57639;52.410;-1.966;2023-04-24T08:59:29;16.10;53.60
61591;DHT22;57639;52.410;-1.966;2023-04-24T09:07:14;16.10;53.70
61591;DHT22;57639;52.410;-1.966;2023-04-24T09:10:56;16.10;53.70
61591;DHT22;57639;52.410;-1.966;2023-04-24T09:14:23;16.10;53.60
61591;DHT22;57639;52.410;-1.966;2023-04-24T09:17:48;16.10;53.50
61591;DHT22;57639;52.410;-1.966;2023-04-24T09:21:10;16.10;53.60
61591;DHT22;57639;52.410;-1.966;2023-04-24T09:24:36;16.10;53.50
61591;DHT22;57639;52.410;-1.966;2023-04-24T09:28:01;16.10;53.50
61591;DHT22;57639;52.410;-1.966;2023-04-24T09:31:27;16.00;53.50
61591;DHT22;57639;52.410;-1.966;2023-04-24T09:34:47;16.00;53.50
61591;DHT22;57639;52.410;-1.966;2023-04-24T09:38:10;16.00;53.60
61591;DHT22;57639;52.410;-1.966;2023-04-24T09:41:43;16.00;53.50
61591;DHT22;57639;52.410;-1.966;2023-04-24T09:45:09;16.00;53.60
61591;DHT22;57639;52.410;-1.966;2023-04-24T09:48:34;16.00;53.50
61591;DHT22;57639;52.410;-1.966;2023-04-24T09:52:03;16.10;53.70
61591;DHT22;57639;52.410;-1.966;2023-04-24T09:55:26;16.00;53.70
61591;DHT22;57639;52.410;-1.966;2023-04-24T09:58:53;16.00;53.90
61591;DHT22;57639;52.410;-1.966;2023-04-24T10:02:17;16.00;53.90
61591;DHT22;57639;52.410;-1.966;2023-04-24T10:05:40;16.00;54.00
61591;DHT22;57639;52.410;-1.966;2023-04-24T10:09:03;16.00;54.00
61591;DHT22;57639;52.410;-1.966;2023-04-24T10:12:27;16.00;54.00
61591;DHT22;57639;52.410;-1.966;2023-04-24T10:15:53;16.00;54.00
61591;DHT22;57639;52.410;-1.966;2023-04-24T10:19:17;16.00;54.00
61591;DHT22;57639;52.410;-1.966;2023-04-24T10:22:40;16.00;54.00
61591;DHT22;57639;52.410;-1.966;2023-04-24T10:26:09;16.00;54.10
61591;DHT22;57639;52.410;-1.966;2023-04-24T10:29:37;15.90;54.00
61591;DHT22;57639;52.410;-1.966;2023-04-24T10:33:03;16.00;54.20
61591;DHT22;57639;52.410;-1.966;2023-04-24T10:36:28;16.00;54.20
61591;DHT22;57639;52.410;-1.966;2023-04-24T10:39:48;15.90;54.10
61591;DHT22;57639;52.410;-1.966;2023-04-24T10:43:17;15.90;54.20
61591;DHT22;57639;52.410;-1.966;2023-04-24T10:46:43;15.90;54.20
61591;DHT22;57639;52.410;-1.966;2023-04-24T10:50:16;15.90;54.30
61591;DHT22;57639;52.410;-1.966;2023-04-24T10:53:39;15.90;54.40
61591;DHT22;57639;52.410;-1.966;2023-04-24T10:57:26;16.00;54.30
61591;DHT22;57639;52.410;-1.966;2023-04-24T11:00:56;16.10;54.30
61591;DHT22;57639;52.410;-1.966;2023-04-24T11:04:29;16.10;54.50
61591;DHT22;57639;52.410;-1.966;2023-04-24T11:08:13;16.00;54.50
61591;DHT22;57639;52.410;-1.966;2023-04-24T11:11:37;16.00;54.60
61591;DHT22;57639;52.410;-1.966;2023-04-24T11:15:01;16.00;54.70
61591;DHT22;57639;52.410;-1.966;2023-04-24T11:18:24;16.00;54.60
61591;DHT22;57639;52.410;-1.966;2023-04-24T11:21:48;16.10;54.50
61591;DHT22;57639;52.410;-1.966;2023-04-24T11:25:15;16.10;54.40
61591;DHT22;57639;52.410;-1.966;2023-04-24T11:28:44;16.30;54.30
61591;DHT22;57639;52.410;-1.966;2023-04-24T11:32:26;16.40;54.10
61591;DHT22;57639;52.410;-1.966;2023-04-24T11:35:51;16.60;54.00
61591;DHT22;57639;52.410;-1.966;2023-04-24T11:39:14;16.60;53.90
61591;DHT22;57639;52.410;-1.966;2023-04-24T11:42:40;16.60;53.70
61591;DHT22;57639;52.410;-1.966;2023-04-24T11:45:59;16.70;53.60
61591;DHT22;57639;52.410;-1.966;2023-04-24T11:49:22;16.80;53.50
61591;DHT22;57639;52.410;-1.966;2023-04-24T11:52:46;16.90;53.30
61591;DHT22;57639;52.410;-1.966;2023-04-24T11:56:09;17.00;53.30
61591;DHT22;57639;52.410;-1.966;2023-04-24T11:59:38;17.10;53.10
61591;DHT22;57639;52.410;-1.966;2023-04-24T12:03:05;17.10;53.00
61591;DHT22;57639;52.410;-1.966;2023-04-24T12:06:28;17.20;53.00
61591;DHT22;57639;52.410;-1.966;2023-04-24T12:09:56;17.20;52.90
61591;DHT22;57639;52.410;-1.966;2023-04-24T12:13:19;17.30;52.90
61591;DHT22;57639;52.410;-1.966;2023-04-24T12:16:47;17.30;52.80
61591;DHT22;57639;52.410;-1.966;2023-04-24T12:20:11;17.30;52.80
61591;DHT22;57639;52.410;-1.966;2023-04-24T12:23:34;17.30;52.80
61591;DHT22;57639;52.410;-1.966;2023-04-24T12:26:57;17.30;52.80
61591;DHT22;57639;52.410;-1.966;2023-04-24T12:30:21;17.30;52.80
61591;DHT22;57639;52.410;-1.966;2023-04-24T12:33:47;17.30;52.80
61591;DHT22;57639;52.410;-1.966;2023-04-24T12:37:10;17.30;52.80
61591;DHT22;57639;52.410;-1.966;2023-04-24T12:40:33;17.20;52.90
61591;DHT22;57639;52.410;-1.966;2023-04-24T12:43:56;17.20;52.90
61591;DHT22;57639;52.410;-1.966;2023-04-24T12:47:18;17.20;53.00
61591;DHT22;57639;52.410;-1.966;2023-04-24T12:50:41;17.10;53.00
61591;DHT22;57639;52.410;-1.966;2023-04-24T12:54:03;17.20;53.10
61591;DHT22;57639;52.410;-1.966;2023-04-24T12:57:27;17.10;53.10
61591;DHT22;57639;52.410;-1.966;2023-04-24T13:00:50;17.10;53.20
61591;DHT22;57639;52.410;-1.966;2023-04-24T13:04:13;17.10;53.20
61591;DHT22;57639;52.410;-1.966;2023-04-24T13:07:39;17.10;53.30
61591;DHT22;57639;52.410;-1.966;2023-04-24T13:11:02;17.10;53.40
61591;DHT22;57639;52.410;-1.966;2023-04-24T13:14:24;17.00;53.40
61591;DHT22;57639;52.410;-1.966;2023-04-24T13:17:47;17.00;53.60
61591;DHT22;57639;52.410;-1.966;2023-04-24T13:21:10;17.00;53.60
61591;DHT22;57639;52.410;-1.966;2023-04-24T13:24:35;17.00;53.70
61591;DHT22;57639;52.410;-1.966;2023-04-24T13:27:59;16.90;53.80
61591;DHT22;57639;52.410;-1.966;2023-04-24T13:31:21;16.80;53.90
61591;DHT22;57639;52.410;-1.966;2023-04-24T13:34:44;16.80;54.00
61591;DHT22;57639;52.410;-1.966;2023-04-24T13:38:07;16.80;53.90
61591;DHT22;57639;52.410;-1.966;2023-04-24T13:41:33;16.70;54.00
61591;DHT22;57639;52.410;-1.966;2023-04-24T13:44:56;16.70;54.00
61591;DHT22;57639;52.410;-1.966;2023-04-24T13:48:19;16.70;54.00
61591;DHT22;57639;52.410;-1.966;2023-04-24T13:51:42;16.70;54.10
61591;DHT22;57639;52.410;-1.966;2023-04-24T13:55:01;16.70;54.10
61591;DHT22;57639;52.410;-1.966;2023-04-24T13:58:27;16.60;54.00
61591;DHT22;57639;52.410;-1.966;2023-04-24T14:01:50;16.60;54.10
61591;DHT22;57639;52.410;-1.966;2023-04-24T14:05:12;16.60;54.10
61591;DHT22;57639;52.410;-1.966;2023-04-24T14:08:36;16.60;54.00
61591;DHT22;57639;52.410;-1.966;2023-04-24T14:11:59;16.60;54.00
61591;DHT22;57639;52.410;-1.966;2023-04-24T14:15:25;16.60;54.00
61591;DHT22;57639;52.410;-1.966;2023-04-24T14:18:48;16.60;54.00
61591;DHT22;57639;52.410;-1.966;2023-04-24T14:22:11;16.60;54.10
61591;DHT22;57639;52.410;-1.966;2023-04-24T14:25:34;16.60;54.20
61591;DHT22;57639;52.410;-1.966;2023-04-24T14:28:56;16.60;54.20
61591;DHT22;57639;52.410;-1.966;2023-04-24T14:32:22;16.50;54.20
61591;DHT22;57639;52.410;-1.966;2023-04-24T14:35:44;16.50;54.20
61591;DHT22;57639;52.410;-1.966;2023-04-24T14:39:08;16.50;54.20
61591;DHT22;57639;52.410;-1.966;2023-04-24T14:45:55;16.50;54.30
61591;DHT22;57639;52.410;-1.966;2023-04-24T14:49:21;16.40;54.30
61591;DHT22;57639;52.410;-1.966;2023-04-24T14:52:43;16.40;54.30
61591;DHT22;57639;52.410;-1.966;2023-04-24T14:56:06;16.40;54.40
61591;DHT22;57639;52.410;-1.966;2023-04-24T14:59:25;16.40;54.40
61591;DHT22;57639;52.410;-1.966;2023-04-24T15:02:48;16.30;54.40
61591;DHT22;57639;52.410;-1.966;2023-04-24T15:06:13;16.40;54.40
61591;DHT22;57639;52.410;-1.966;2023-04-24T15:09:36;16.40;54.50
61591;DHT22;57639;52.410;-1.966;2023-04-24T15:12:59;16.30;54.50
61591;DHT22;57639;52.410;-1.966;2023-04-24T15:16:23;16.30;54.60
61591;DHT22;57639;52.410;-1.966;2023-04-24T15:19:46;16.40;54.60
61591;DHT22;57639;52.410;-1.966;2023-04-24T15:23:12;16.30;54.60
61591;DHT22;57639;52.410;-1.966;2023-04-24T15:26:34;16.30;54.50
61591;DHT22;57639;52.410;-1.966;2023-04-24T15:29:57;16.30;54.50
61591;DHT22;57639;52.410;-1.966;2023-04-24T15:33:19;16.30;54.60
61591;DHT22;57639;52.410;-1.966;2023-04-24T15:36:42;16.30;54.50
61591;DHT22;57639;52.410;-1.966;2023-04-24T15:40:09;16.30;54.50
61591;DHT22;57639;52.410;-1.966;2023-04-24T15:43:34;16.30;54.50
61591;DHT22;57639;52.410;-1.966;2023-04-24T15:47:00;16.30;54.60
61591;DHT22;57639;52.410;-1.966;2023-04-24T15:50:22;16.30;54.70
61591;DHT22;57639;52.410;-1.966;2023-04-24T15:53:45;16.30;54.80
61591;DHT22;57639;52.410;-1.966;2023-04-24T15:57:11;16.20;55.00
61591;DHT22;57639;52.410;-1.966;2023-04-24T16:00:34;16.30;55.00
61591;DHT22;57639;52.410;-1.966;2023-04-24T16:03:53;16.30;55.10
61591;DHT22;57639;52.410;-1.966;2023-04-24T16:07:00;16.40;55.00
61591;DHT22;57639;52.410;-1.966;2023-04-24T16:20:04;16.50;54.60
61591;DHT22;57639;52.410;-1.966;2023-04-24T16:23:10;16.50;55.10
61591;DHT22;57639;52.410;-1.966;2023-04-24T16:26:17;16.50;55.20
61591;DHT22;57639;52.410;-1.966;2023-04-24T16:29:23;16.50;54.60
61591;DHT22;57639;52.410;-1.966;2023-04-24T16:32:30;16.60;55.30
61591;DHT22;57639;52.410;-1.966;2023-04-24T16:35:39;16.50;55.20
61591;DHT22;57639;52.410;-1.966;2023-04-24T16:38:46;16.50;55.50
61591;DHT22;57639;52.410;-1.966;2023-04-24T16:41:53;16.50;55.80
61591;DHT22;57639;52.410;-1.966;2023-04-24T16:44:59;16.50;55.80
61591;DHT22;57639;52.410;-1.966;2023-04-24T16:48:06;16.50;55.80
61591;DHT22;57639;52.410;-1.966;2023-04-24T16:51:16;16.50;55.70
61591;DHT22;57639;52.410;-1.966;2023-04-24T16:54:23;16.40;55.60
61591;DHT22;57639;52.410;-1.966;2023-04-24T16:57:29;16.40;55.30
61591;DHT22;57639;52.410;-1.966;2023-04-24T17:00:35;16.30;55.10
61591;DHT22;57639;52.410;-1.966;2023-04-24T17:03:42;16.30;55.00
61591;DHT22;57639;52.410;-1.966;2023-04-24T17:06:52;16.30;55.10
61591;DHT22;57639;52.410;-1.966;2023-04-24T17:09:58;16.40;55.30
61591;DHT22;57639;52.410;-1.966;2023-04-24T17:13:05;16.30;54.40
61591;DHT22;57639;52.410;-1.966;2023-04-24T17:16:11;16.30;54.50
61591;DHT22;57639;52.410;-1.966;2023-04-24T17:19:18;16.20;55.60
61591;DHT22;57639;52.410;-1.966;2023-04-24T17:22:27;16.40;55.30
61591;DHT22;57639;52.410;-1.966;2023-04-24T17:25:33;16.50;55.20
61591;DHT22;57639;52.410;-1.966;2023-04-24T17:28:40;16.60;55.10
61591;DHT22;57639;52.410;-1.966;2023-04-24T17:31:46;16.70;55.10
61591;DHT22;57639;52.410;-1.966;2023-04-24T17:34:52;16.70;54.80
61591;DHT22;57639;52.410;-1.966;2023-04-24T17:38:01;16.80;54.60
61591;DHT22;57639;52.410;-1.966;2023-04-24T17:41:08;17.00;54.40
61591;DHT22;57639;52.410;-1.966;2023-04-24T17:44:16;17.10;54.30
61591;DHT22;57639;52.410;-1.966;2023-04-24T17:47:23;17.40;53.90
61591;DHT22;57639;52.410;-1.966;2023-04-24T17:50:31;17.60;53.50
61591;DHT22;57639;52.410;-1.966;2023-04-24T17:53:40;17.80;53.00
61591;DHT22;57639;52.410;-1.966;2023-04-24T17:56:47;18.00;52.50
61591;DHT22;57639;52.410;-1.966;2023-04-24T17:59:54;18.10;52.10
61591;DHT22;57639;52.410;-1.966;2023-04-24T18:03:02;18.30;51.70
61591;DHT22;57639;52.410;-1.966;2023-04-24T18:06:08;18.40;51.40
61591;DHT22;57639;52.410;-1.966;2023-04-24T18:09:22;18.60;51.00
61591;DHT22;57639;52.410;-1.966;2023-04-24T18:12:28;18.60;50.60
61591;DHT22;57639;52.410;-1.966;2023-04-24T18:15:34;18.70;50.40
61591;DHT22;57639;52.410;-1.966;2023-04-24T18:18:44;18.60;50.20
61591;DHT22;57639;52.410;-1.966;2023-04-24T18:21:50;18.60;50.20
61591;DHT22;57639;52.410;-1.966;2023-04-24T18:24:59;18.60;49.90
61591;DHT22;57639;52.410;-1.966;2023-04-24T18:28:06;18.60;49.80
61591;DHT22;57639;52.410;-1.966;2023-04-24T18:31:12;18.50;49.90
61591;DHT22;57639;52.410;-1.966;2023-04-24T18:34:19;18.40;49.80
61591;DHT22;57639;52.410;-1.966;2023-04-24T18:37:25;18.30;49.90
61591;DHT22;57639;52.410;-1.966;2023-04-24T18:40:34;18.20;50.00
61591;DHT22;57639;52.410;-1.966;2023-04-24T18:43:41;18.20;49.80
61591;DHT22;57639;52.410;-1.966;2023-04-24T18:46:48;18.10;50.00
61591;DHT22;57639;52.410;-1.966;2023-04-24T18:49:54;18.10;50.30
61591;DHT22;57639;52.410;-1.966;2023-04-24T18:53:00;18.00;50.00
61591;DHT22;57639;52.410;-1.966;2023-04-24T18:56:09;18.00;50.70
61591;DHT22;57639;52.410;-1.966;2023-04-24T18:59:16;17.90;50.80
61591;DHT22;57639;52.410;-1.966;2023-04-24T19:02:22;17.80;50.90
61591;DHT22;57639;52.410;-1.966;2023-04-24T19:05:28;17.80;50.80
61591;DHT22;57639;52.410;-1.966;2023-04-24T19:08:35;17.70;50.70
61591;DHT22;57639;52.410;-1.966;2023-04-24T19:11:47;17.60;50.90
61591;DHT22;57639;52.410;-1.966;2023-04-24T19:14:54;17.60;50.80
61591;DHT22;57639;52.410;-1.966;2023-04-24T19:18:00;17.60;50.90
61591;DHT22;57639;52.410;-1.966;2023-04-24T19:21:07;17.50;51.00
61591;DHT22;57639;52.410;-1.966;2023-04-24T19:24:13;17.50;51.10
61591;DHT22;57639;52.410;-1.966;2023-04-24T19:27:23;17.40;50.90
61591;DHT22;57639;52.410;-1.966;2023-04-24T19:30:30;17.30;51.10
61591;DHT22;57639;52.410;-1.966;2023-04-24T19:33:37;17.30;51.20
61591;DHT22;57639;52.410;-1.966;2023-04-24T19:36:43;17.20;51.20
61591;DHT22;57639;52.410;-1.966;2023-04-24T19:39:50;17.20;51.30
61591;DHT22;57639;52.410;-1.966;2023-04-24T19:42:59;17.20;51.30
61591;DHT22;57639;52.410;-1.966;2023-04-24T19:46:05;17.10;51.40
61591;DHT22;57639;52.410;-1.966;2023-04-24T19:49:11;17.10;51.40
61591;DHT22;57639;52.410;-1.966;2023-04-24T19:52:19;17.10;51.50
61591;DHT22;57639;52.410;-1.966;2023-04-24T19:55:25;17.00;51.50
61591;DHT22;57639;52.410;-1.966;2023-04-24T19:58:37;17.00;51.60
61591;DHT22;57639;52.410;-1.966;2023-04-24T20:01:44;17.00;51.60
61591;DHT22;57639;52.410;-1.966;2023-04-24T20:04:50;16.90;51.60
61591;DHT22;57639;52.410;-1.966;2023-04-24T20:07:57;16.90;51.60
61591;DHT22;57639;52.410;-1.966;2023-04-24T20:11:03;16.90;51.70
61591;DHT22;57639;52.410;-1.966;2023-04-24T20:14:12;16.80;51.70
61591;DHT22;57639;52.410;-1.966;2023-04-24T20:17:19;16.80;51.90
61591;DHT22;57639;52.410;-1.966;2023-04-24T20:20:25;16.70;51.70
61591;DHT22;57639;52.410;-1.966;2023-04-24T20:23:32;16.70;51.90
61591;DHT22;57639;52.410;-1.966;2023-04-24T20:26:38;16.70;51.90
61591;DHT22;57639;52.410;-1.966;2023-04-24T20:29:47;16.70;51.60
61591;DHT22;57639;52.410;-1.966;2023-04-24T20:32:54;16.60;51.70
61591;DHT22;57639;52.410;-1.966;2023-04-24T20:36:00;16.60;51.80
61591;DHT22;57639;52.410;-1.966;2023-04-24T20:39:07;16.60;51.90
61591;DHT22;57639;52.410;-1.966;2023-04-24T20:42:13;16.60;51.90
61591;DHT22;57639;52.410;-1.966;2023-04-24T20:45:23;16.60;51.90
61591;DHT22;57639;52.410;-1.966;2023-04-24T20:48:29;16.60;52.00
61591;DHT22;57639;52.410;-1.966;2023-04-24T20:51:35;16.40;52.00
61591;DHT22;57639;52.410;-1.966;2023-04-24T20:54:42;16.40;52.00
61591;DHT22;57639;52.410;-1.966;2023-04-24T20:57:48;16.40;51.90
61591;DHT22;57639;52.410;-1.966;2023-04-24T21:00:58;16.40;51.80
61591;DHT22;57639;52.410;-1.966;2023-04-24T21:04:04;16.40;51.80
61591;DHT22;57639;52.410;-1.966;2023-04-24T21:07:11;16.40;51.70